createdAt,value
2017-11-20T00:01:05.665Z,101226.34
2017-11-20T00:03:34.114Z,101231.80
2017-11-20T00:06:02.523Z,101218.85
2017-11-20T00:08:31.124Z,101229.03
2017-11-20T00:10:59.515Z,101233.70
2017-11-20T00:13:27.948Z,101228.45
2017-11-20T00:15:57.176Z,101243.00
2017-11-20T00:18:25.578Z,101229.39
2017-11-20T00:20:54.063Z,101228.70
2017-11-20T00:23:23.363Z,101232.31
2017-11-20T00:25:51.740Z,101232.09
2017-11-20T00:28:20.162Z,101227.16
2017-11-20T00:30:50.251Z,101228.12
2017-11-20T00:33:19.509Z,101229.70
2017-11-20T00:35:47.915Z,101228.21
2017-11-20T00:38:16.301Z,101220.13
2017-11-20T00:40:44.690Z,101224.63
2017-11-20T00:43:13.193Z,101234.04
2017-11-20T00:45:42.383Z,101231.44
2017-11-20T00:48:10.774Z,101229.37
2017-11-20T00:50:39.184Z,101237.95
2017-11-20T00:53:07.574Z,101246.98
2017-11-20T00:55:36.038Z,101241.68
2017-11-20T00:58:04.464Z,101244.89
2017-11-20T01:00:32.885Z,101247.11
2017-11-20T01:03:01.979Z,101247.41
2017-11-20T01:05:30.490Z,101249.80
2017-11-20T01:08:00.152Z,101248.24
2017-11-20T01:10:28.814Z,101252.11
2017-11-20T01:12:57.221Z,101257.69
2017-11-20T01:15:25.596Z,101270.89
2017-11-20T01:17:53.977Z,101276.19
2017-11-20T01:20:22.400Z,101253.69
2017-11-20T01:22:50.774Z,101255.20
2017-11-20T01:25:19.142Z,101250.16
2017-11-20T01:27:47.645Z,101254.41
2017-11-20T01:30:16.045Z,101251.70
2017-11-20T01:32:44.423Z,101254.95
2017-11-20T01:35:13.735Z,101253.22
2017-11-20T01:37:42.110Z,101255.84
2017-11-20T01:40:10.481Z,101256.83
2017-11-20T01:42:38.898Z,101272.46
2017-11-20T01:45:07.971Z,101262.24
2017-11-20T01:47:36.359Z,101270.81
2017-11-20T01:50:04.915Z,101267.45
2017-11-20T01:52:33.293Z,101266.30
2017-11-20T01:55:01.692Z,101266.45
2017-11-20T01:57:30.091Z,101266.72
2017-11-20T01:59:58.469Z,101271.66
2017-11-20T02:02:26.885Z,101286.63
2017-11-20T02:04:56.064Z,101286.11
2017-11-20T02:07:24.479Z,101288.13
2017-11-20T02:09:52.849Z,101287.89
2017-11-20T02:12:21.489Z,101284.80
2017-11-20T02:14:49.889Z,101287.05
2017-11-20T02:17:19.063Z,101287.69
2017-11-20T02:19:47.501Z,101285.00
2017-11-20T02:22:15.941Z,101280.63
2017-11-20T02:24:44.333Z,101281.45
2017-11-20T02:27:12.746Z,101279.02
2017-11-20T02:29:41.196Z,101277.63
2017-11-20T02:32:09.584Z,101280.76
2017-11-20T02:34:38.225Z,101273.93
2017-11-20T02:37:07.399Z,101270.04
2017-11-20T02:39:35.992Z,101270.87
2017-11-20T02:42:04.412Z,101267.08
2017-11-20T02:44:33.510Z,101271.83
2017-11-20T02:47:02.408Z,101282.62
2017-11-20T02:49:30.825Z,101278.78
2017-11-20T02:51:59.787Z,101276.11
2017-11-20T02:54:28.939Z,101281.66
2017-11-20T02:56:58.362Z,101287.25
2017-11-20T02:59:26.741Z,101288.91
2017-11-20T03:01:55.154Z,101291.80
2017-11-20T03:04:24.338Z,101280.22
2017-11-20T03:06:52.719Z,101280.42
2017-11-20T03:09:21.859Z,101281.09
2017-11-20T03:11:50.528Z,101284.14
2017-11-20T03:14:18.924Z,101274.56
2017-11-20T03:16:47.904Z,101280.20
2017-11-20T03:19:17.305Z,101281.20
2017-11-20T03:21:45.676Z,101273.92
2017-11-20T03:24:14.081Z,101280.50
2017-11-20T03:26:42.532Z,101273.53
2017-11-20T03:29:11.685Z,101265.93
2017-11-20T03:31:40.073Z,101271.58
2017-11-20T03:34:08.481Z,101270.80
2017-11-20T03:36:37.650Z,101260.48
2017-11-20T03:39:06.018Z,101265.46
2017-11-20T03:41:34.603Z,101274.88
2017-11-20T03:44:02.981Z,101271.20
2017-11-20T03:46:31.385Z,101273.97
2017-11-20T03:48:59.806Z,101281.79
2017-11-20T03:51:28.188Z,101282.94
2017-11-20T03:53:56.591Z,101284.63
2017-11-20T03:56:26.021Z,101288.73
2017-11-20T03:58:55.401Z,101277.23
2017-11-20T04:01:23.785Z,101283.14
2017-11-20T04:03:52.459Z,101284.50
2017-11-20T04:06:20.838Z,101280.20
2017-11-20T04:08:50.013Z,101281.50
2017-11-20T04:11:18.448Z,101277.93
2017-11-20T04:13:46.846Z,101277.59
2017-11-20T04:16:16.033Z,101277.17
2017-11-20T04:18:44.452Z,101275.13
2017-11-20T04:21:12.836Z,101272.80
2017-11-20T04:23:41.977Z,101272.19
2017-11-20T04:26:10.561Z,101270.65
2017-11-20T04:28:38.940Z,101270.23
2017-11-20T04:31:07.318Z,101273.59
2017-11-20T04:33:35.733Z,101272.14
2017-11-20T04:36:04.866Z,101268.43
2017-11-20T04:38:33.279Z,101278.20
2017-11-20T04:41:02.371Z,101274.22
2017-11-20T04:43:30.754Z,101279.80
2017-11-20T04:45:59.118Z,101278.13
2017-11-20T04:48:27.682Z,101290.02
2017-11-20T04:50:56.057Z,101285.45
2017-11-20T04:53:24.435Z,101287.97
2017-11-20T04:55:52.852Z,101284.64
2017-11-20T04:58:21.230Z,101279.11
2017-11-20T05:00:49.605Z,101278.02
2017-11-20T05:03:18.031Z,101268.66
2017-11-20T05:05:46.411Z,101277.77
2017-11-20T05:08:15.558Z,101273.91
2017-11-20T05:10:44.027Z,101276.30
2017-11-20T05:13:12.416Z,101280.20
2017-11-20T05:15:41.486Z,101287.18
2017-11-20T05:18:10.273Z,101288.97
2017-11-20T05:20:38.653Z,101290.86
2017-11-20T05:23:07.266Z,101286.59
2017-11-20T05:25:35.677Z,101285.42
2017-11-20T05:28:04.060Z,101283.05
2017-11-20T05:30:32.445Z,101283.53
2017-11-20T05:33:01.718Z,101290.37
2017-11-20T05:35:30.097Z,101288.56
2017-11-20T05:37:58.482Z,101293.79
2017-11-20T05:40:26.884Z,101291.97
2017-11-20T05:42:55.321Z,101296.59
2017-11-20T05:45:23.910Z,101294.59
2017-11-20T05:47:52.324Z,101289.38
2017-11-20T05:50:21.160Z,101296.52
2017-11-20T05:52:50.925Z,101292.23
2017-11-20T05:55:19.563Z,101296.72
2017-11-20T05:57:47.927Z,101290.44
2017-11-20T06:00:16.319Z,101294.45
2017-11-20T06:02:44.724Z,101286.81
2017-11-20T06:05:13.902Z,101291.77
2017-11-20T06:07:42.309Z,101289.00
2017-11-20T06:10:10.706Z,101294.83
2017-11-20T06:12:39.884Z,101304.00
2017-11-20T06:15:08.401Z,101305.23
2017-11-20T06:17:38.411Z,101304.61
2017-11-20T06:20:06.788Z,101309.16
2017-11-20T06:22:35.168Z,101303.08
2017-11-20T06:25:03.593Z,101299.06
2017-11-20T06:27:31.998Z,101304.31
2017-11-20T06:30:00.380Z,101302.25
2017-11-20T06:32:28.785Z,101307.69
2017-11-20T06:34:58.637Z,101307.80
2017-11-20T06:37:27.913Z,101311.72
2017-11-20T06:39:58.293Z,101311.97
2017-11-20T06:42:26.669Z,101310.62
2017-11-20T06:44:55.048Z,101311.64
2017-11-20T06:47:23.471Z,101320.14
2017-11-20T06:49:51.871Z,101318.32
2017-11-20T06:52:20.288Z,101329.07
2017-11-20T06:54:48.699Z,101316.80
2017-11-20T06:57:17.073Z,101322.84
2017-11-20T06:59:45.441Z,101309.80
2017-11-20T07:02:14.153Z,101306.25
2017-11-20T07:04:42.532Z,101303.66
2017-11-20T07:07:10.909Z,101300.77
2017-11-20T07:09:40.128Z,101300.75
2017-11-20T07:12:09.267Z,101306.07
2017-11-20T07:14:37.673Z,101309.84
2017-11-20T07:17:06.082Z,101311.47
2017-11-20T07:19:35.473Z,101317.77
2017-11-20T07:22:03.849Z,101313.45
2017-11-20T07:24:32.380Z,101318.81
2017-11-20T07:27:03.550Z,101314.98
2017-11-20T07:29:49.537Z,101314.55
2017-11-20T07:32:18.692Z,101311.30
2017-11-20T07:35:16.276Z,101312.50
2017-11-20T07:38:02.214Z,101313.25
2017-11-20T07:40:48.381Z,101318.08
2017-11-20T07:43:17.075Z,101324.15
2017-11-20T07:45:45.453Z,101341.16
2017-11-20T07:48:13.876Z,101354.16
2017-11-20T07:50:43.034Z,101351.20
2017-11-20T07:53:11.425Z,101355.73
2017-11-20T07:55:39.851Z,101341.83
2017-11-20T07:58:08.989Z,101333.35
2017-11-20T08:00:37.381Z,101339.86
2017-11-20T08:03:06.050Z,101336.84
2017-11-20T08:05:34.428Z,101343.67
2017-11-20T08:08:03.626Z,101335.03
2017-11-20T08:10:32.023Z,101328.22
2017-11-20T08:13:00.633Z,101334.60
2017-11-20T08:15:29.805Z,101341.80
2017-11-20T08:17:58.303Z,101338.45
2017-11-20T08:20:26.716Z,101331.41
2017-11-20T08:22:55.103Z,101334.17
2017-11-20T08:25:23.735Z,101323.42
2017-11-20T08:27:52.105Z,101330.34
2017-11-20T08:30:20.481Z,101328.78
2017-11-20T08:32:48.916Z,101321.67
2017-11-20T08:35:17.296Z,101326.96
2017-11-20T08:37:45.690Z,101330.08
2017-11-20T08:40:14.109Z,101335.68
2017-11-20T08:42:43.995Z,101343.05
2017-11-20T08:45:12.373Z,101342.89
2017-11-20T08:47:40.956Z,101343.12
2017-11-20T08:50:09.363Z,101332.60
2017-11-20T08:52:37.740Z,101328.27
2017-11-20T08:55:06.194Z,101325.69
2017-11-20T08:57:34.810Z,101329.14
2017-11-20T09:00:03.242Z,101316.51
2017-11-20T09:02:31.718Z,101311.61
2017-11-20T09:05:00.095Z,101317.63
2017-11-20T09:07:29.253Z,101318.06
2017-11-20T09:09:57.728Z,101315.09
2017-11-20T09:12:26.113Z,101322.84
2017-11-20T09:14:54.487Z,101315.76
2017-11-20T09:17:23.705Z,101311.40
2017-11-20T09:19:52.084Z,101311.63
2017-11-20T09:22:20.483Z,101312.26
2017-11-20T09:24:48.921Z,101310.05
2017-11-20T09:27:17.745Z,101309.22
2017-11-20T09:29:46.138Z,101309.27
2017-11-20T09:32:15.389Z,101314.95
2017-11-20T09:34:43.783Z,101316.65
2017-11-20T09:37:12.192Z,101313.50
2017-11-20T09:39:40.627Z,101316.59
2017-11-20T09:42:09.033Z,101318.77
2017-11-20T09:44:37.419Z,101319.71
2017-11-20T09:47:05.840Z,101314.84
2017-11-20T09:49:34.217Z,101317.41
2017-11-20T09:52:02.622Z,101313.48
2017-11-20T09:54:31.743Z,101320.06
2017-11-20T09:57:00.139Z,101313.73
2017-11-20T09:59:28.511Z,101314.73
2017-11-20T10:01:57.469Z,101313.16
2017-11-20T10:04:25.836Z,101315.16
2017-11-20T10:06:54.220Z,101316.72
2017-11-20T10:09:22.778Z,101322.61
2017-11-20T10:11:51.932Z,101314.06
2017-11-20T10:14:21.151Z,101311.14
2017-11-20T10:16:49.657Z,101311.08
2017-11-20T10:19:18.769Z,101308.13
2017-11-20T10:21:47.968Z,101309.19
2017-11-20T10:24:16.390Z,101306.27
2017-11-20T10:26:44.774Z,101303.77
2017-11-20T10:29:13.164Z,101303.48
2017-11-20T10:31:42.184Z,101303.19
2017-11-20T10:34:10.589Z,101301.92
2017-11-20T10:36:38.989Z,101299.38
2017-11-20T10:39:07.437Z,101295.31
2017-11-20T10:41:35.823Z,101296.81
2017-11-20T10:44:04.239Z,101297.45
2017-11-20T10:46:32.660Z,101296.88
2017-11-20T10:49:02.393Z,101294.81
2017-11-20T10:51:30.783Z,101290.95
2017-11-20T10:53:59.192Z,101293.42
2017-11-20T10:56:27.590Z,101291.89
2017-11-20T10:58:56.744Z,101278.67
2017-11-20T11:01:25.534Z,101285.72
2017-11-20T11:03:53.905Z,101284.16
2017-11-20T11:06:22.624Z,101290.91
2017-11-20T11:08:51.950Z,101294.17
2017-11-20T11:11:20.328Z,101286.50
2017-11-20T11:13:49.920Z,101281.81
2017-11-20T11:16:19.255Z,101286.22
2017-11-20T11:18:47.677Z,101286.08
2017-11-20T11:21:16.477Z,101282.94
2017-11-20T11:23:45.256Z,101276.19
2017-11-20T11:26:13.994Z,101279.95
2017-11-20T11:28:42.382Z,101276.48
2017-11-20T11:31:11.557Z,101273.27
2017-11-20T11:33:39.943Z,101270.07
2017-11-20T11:36:08.322Z,101267.15
2017-11-20T11:38:36.742Z,101271.39
2017-11-20T11:41:05.248Z,101271.03
2017-11-20T11:43:33.627Z,101264.34
2017-11-20T11:46:02.158Z,101269.47
2017-11-20T11:48:31.319Z,101259.27
2017-11-20T11:51:00.449Z,101262.73
2017-11-20T11:53:29.676Z,101265.53
2017-11-20T11:55:58.771Z,101255.13
2017-11-20T11:58:27.173Z,101253.53
2017-11-20T12:00:55.585Z,101252.20
2017-11-20T12:03:24.741Z,101247.55
2017-11-20T12:05:53.473Z,101248.73
2017-11-20T12:08:22.089Z,101253.66
2017-11-20T12:10:50.720Z,101254.73
2017-11-20T12:13:19.088Z,101246.36
2017-11-20T12:15:48.321Z,101249.58
2017-11-20T12:18:16.704Z,101252.05
2017-11-20T12:20:45.874Z,101252.97
2017-11-20T12:23:14.497Z,101246.97
2017-11-20T12:25:43.713Z,101250.00
2017-11-20T12:28:12.891Z,101244.47
2017-11-20T12:30:42.132Z,101252.28
2017-11-20T12:33:10.513Z,101240.42
2017-11-20T12:35:38.896Z,101239.78
2017-11-20T12:38:08.031Z,101243.13
2017-11-20T12:40:37.200Z,101239.55
2017-11-20T12:43:06.117Z,101239.39
2017-11-20T12:45:34.550Z,101239.18
2017-11-20T12:48:02.922Z,101236.13
2017-11-20T12:50:31.971Z,101231.73
2017-11-20T12:53:00.540Z,101235.16
2017-11-20T12:55:28.935Z,101235.51
2017-11-20T12:57:58.132Z,101233.57
2017-11-20T13:00:26.552Z,101228.59
2017-11-20T13:02:54.927Z,101234.70
2017-11-20T13:05:24.061Z,101225.94
2017-11-20T13:07:52.489Z,101225.94
2017-11-20T13:10:20.843Z,101231.28
2017-11-20T13:12:49.213Z,101225.81
2017-11-20T13:15:17.689Z,101221.99
2017-11-20T13:17:46.314Z,101216.95
2017-11-20T13:20:15.163Z,101221.27
2017-11-20T13:22:43.596Z,101219.34
2017-11-20T13:25:12.744Z,101224.99
2017-11-20T13:27:41.113Z,101215.40
2017-11-20T13:30:09.537Z,101224.42
2017-11-20T13:32:38.727Z,101215.96
2017-11-20T13:35:07.132Z,101202.39
2017-11-20T13:37:35.888Z,101217.39
2017-11-20T13:40:04.279Z,101215.19
2017-11-20T13:42:32.652Z,101213.41
2017-11-20T13:45:01.087Z,101210.84
2017-11-20T13:47:29.512Z,101211.98
2017-11-20T13:49:57.904Z,101208.27
2017-11-20T13:52:27.089Z,101197.05
2017-11-20T13:54:55.541Z,101198.63
2017-11-20T13:57:24.734Z,101196.00
2017-11-20T13:59:53.231Z,101194.86
2017-11-20T14:02:21.637Z,101189.89
2017-11-20T14:04:51.033Z,101183.84
2017-11-20T14:07:19.671Z,101191.66
2017-11-20T14:09:48.848Z,101191.88
2017-11-20T14:12:18.406Z,101195.00
2017-11-20T14:14:46.830Z,101190.59
2017-11-20T14:17:16.029Z,101191.95
2017-11-20T14:19:44.445Z,101182.63
2017-11-20T14:22:13.249Z,101182.63
2017-11-20T14:24:41.625Z,101171.76
2017-11-20T14:27:10.014Z,101175.31
2017-11-20T14:29:38.748Z,101170.55
2017-11-20T14:32:07.136Z,101180.98
2017-11-20T14:34:35.540Z,101176.30
2017-11-20T14:37:03.946Z,101166.21
2017-11-20T14:39:33.099Z,101169.05
2017-11-20T14:42:01.482Z,101166.28
2017-11-20T14:44:30.177Z,101170.78
2017-11-20T14:47:02.690Z,101172.33
2017-11-20T14:49:31.676Z,101170.47
2017-11-20T14:52:05.143Z,101165.89
2017-11-20T14:54:34.261Z,101161.91
2017-11-20T14:57:02.666Z,101162.47
2017-11-20T14:59:31.049Z,101156.59
2017-11-20T15:02:01.150Z,101159.84
2017-11-20T15:04:29.524Z,101156.95
2017-11-20T15:06:57.902Z,101155.30
2017-11-20T15:09:26.365Z,101150.52
2017-11-20T15:11:54.742Z,101149.34
2017-11-20T15:14:23.159Z,101144.27
2017-11-20T15:16:51.587Z,101147.03
2017-11-20T15:19:20.021Z,101148.77
2017-11-20T15:21:48.426Z,101146.20
2017-11-20T15:24:19.057Z,101149.94
2017-11-20T15:26:48.976Z,101147.44
2017-11-20T15:29:19.074Z,101145.13
2017-11-20T15:31:47.472Z,101149.46
2017-11-20T15:34:15.869Z,101147.83
2017-11-20T15:36:44.303Z,101145.45
2017-11-20T15:39:12.707Z,101148.48
2017-11-20T15:41:41.109Z,101142.41
2017-11-20T15:44:09.753Z,101144.04
2017-11-20T15:46:38.900Z,101142.00
2017-11-20T15:49:07.306Z,101137.01
2017-11-20T15:51:35.750Z,101126.06
2017-11-20T15:54:04.145Z,101119.18
2017-11-20T15:56:32.538Z,101124.96
2017-11-20T15:59:01.871Z,101114.21
2017-11-20T16:01:30.350Z,101113.16
2017-11-20T16:03:58.767Z,101106.04
2017-11-20T16:06:28.025Z,101115.99
2017-11-20T16:08:56.409Z,101116.27
2017-11-20T16:11:25.473Z,101117.06
2017-11-20T16:13:53.943Z,101115.02
2017-11-20T16:16:22.334Z,101112.50
2017-11-20T16:18:50.761Z,101105.07
2017-11-20T16:21:19.457Z,101099.20
2017-11-20T16:23:48.616Z,101094.80
2017-11-20T16:26:17.021Z,101096.62
2017-11-20T16:28:46.197Z,101096.27
2017-11-20T16:31:14.581Z,101094.37
2017-11-20T16:33:42.959Z,101083.09
2017-11-20T16:36:11.392Z,101088.11
2017-11-20T16:38:40.464Z,101089.72
2017-11-20T16:41:08.863Z,101093.42
2017-11-20T16:43:37.290Z,101087.93
2017-11-20T16:46:05.669Z,101085.28
2017-11-20T16:48:34.937Z,101086.41
2017-11-20T16:51:03.409Z,101088.83
2017-11-20T16:53:31.796Z,101097.92
2017-11-20T16:56:00.198Z,101096.42
2017-11-20T16:58:46.283Z,101088.20
2017-11-20T17:01:14.660Z,101088.37
2017-11-20T17:03:43.047Z,101082.43
2017-11-20T17:06:12.379Z,101082.41
2017-11-20T17:08:40.781Z,101073.95
2017-11-20T17:11:09.926Z,101072.41
2017-11-20T17:13:38.346Z,101069.79
2017-11-20T17:16:07.207Z,101076.41
2017-11-20T17:18:35.604Z,101065.20
2017-11-20T17:21:04.025Z,101070.00
2017-11-20T17:23:32.401Z,101070.42
2017-11-20T17:26:01.574Z,101063.52
2017-11-20T17:28:30.078Z,101066.28
2017-11-20T17:30:58.470Z,101055.76
2017-11-20T17:33:27.640Z,101051.97
2017-11-20T17:35:56.073Z,101050.70
2017-11-20T17:38:24.499Z,101046.02
2017-11-20T17:40:53.674Z,101043.89
2017-11-20T17:43:22.104Z,101050.18
2017-11-20T17:45:51.278Z,101048.67
2017-11-20T17:48:19.695Z,101051.48
2017-11-20T17:50:48.493Z,101047.21
2017-11-20T17:53:16.900Z,101046.56
2017-11-20T17:55:46.817Z,101042.95
2017-11-20T17:58:15.519Z,101041.04
2017-11-20T18:00:43.915Z,101053.55
2017-11-20T18:03:12.881Z,101045.64
2017-11-20T18:05:41.322Z,101050.36
2017-11-20T18:08:09.716Z,101048.47
2017-11-20T18:10:38.098Z,101044.91
2017-11-20T18:13:07.469Z,101037.60
2017-11-20T18:15:36.642Z,101039.98
2017-11-20T18:18:05.092Z,101037.14
2017-11-20T18:20:34.013Z,101033.15
2017-11-20T18:23:02.741Z,101028.82
2017-11-20T18:25:31.141Z,101026.14
2017-11-20T18:27:59.573Z,101017.99
2017-11-20T18:30:27.972Z,101013.05
2017-11-20T18:32:57.188Z,101010.61
2017-11-20T18:35:25.678Z,101004.17
2017-11-20T18:37:54.080Z,101014.34
2017-11-20T18:40:22.473Z,101009.95
2017-11-20T18:42:51.027Z,101010.66
2017-11-20T18:45:19.486Z,101015.32
2017-11-20T18:47:47.876Z,101011.41
2017-11-20T18:50:16.331Z,101010.05
2017-11-20T18:52:45.554Z,101003.48
2017-11-20T18:55:13.970Z,100997.22
2017-11-20T18:57:42.469Z,100997.31
2017-11-20T19:00:28.443Z,100988.67
2017-11-20T19:03:10.347Z,100988.18
2017-11-20T19:05:56.528Z,100975.64
2017-11-20T19:11:30.463Z,100979.24
2017-11-20T19:13:59.044Z,100975.36
2017-11-20T19:16:27.425Z,100969.53
2017-11-20T19:18:55.827Z,100973.40
2017-11-20T19:21:25.029Z,100970.44
2017-11-20T19:23:53.429Z,100967.84
2017-11-20T19:26:21.834Z,100961.80
2017-11-20T19:28:50.621Z,100955.36
2017-11-20T19:31:19.689Z,100960.65
2017-11-20T19:33:48.870Z,100947.38
2017-11-20T19:36:17.408Z,100950.79
2017-11-20T19:38:46.734Z,100952.57
2017-11-20T19:41:15.118Z,100951.63
2017-11-20T19:43:43.560Z,100960.82
2017-11-20T19:46:11.951Z,100951.55
2017-11-20T19:48:40.596Z,100957.12
2017-11-20T19:51:10.716Z,100956.22
2017-11-20T19:53:39.865Z,100946.13
2017-11-20T19:56:08.272Z,100949.25
2017-11-20T19:58:37.139Z,100950.99
2017-11-20T20:01:05.542Z,100950.45
2017-11-20T20:03:33.920Z,100951.71
2017-11-20T20:06:02.362Z,100950.81
2017-11-20T20:08:30.776Z,100946.27
2017-11-20T20:10:59.927Z,100946.92
2017-11-20T20:13:46.122Z,100954.01
2017-11-20T20:16:21.857Z,100955.81
2017-11-20T20:18:51.056Z,100953.90
2017-11-20T20:21:20.258Z,100946.53
2017-11-20T20:23:49.781Z,100942.29
2017-11-20T20:26:18.212Z,100943.44
2017-11-20T20:28:46.609Z,100939.11
2017-11-20T20:31:15.761Z,100930.47
2017-11-20T20:33:44.265Z,100921.98
2017-11-20T20:36:12.658Z,100914.83
2017-11-20T20:38:41.072Z,100910.14
2017-11-20T20:41:09.535Z,100910.52
2017-11-20T20:43:38.076Z,100908.59
2017-11-20T20:46:06.478Z,100904.89
2017-11-20T20:48:34.906Z,100917.19
2017-11-20T20:51:03.317Z,100908.22
2017-11-20T20:53:31.709Z,100913.30
2017-11-20T20:56:00.615Z,100906.47
2017-11-20T20:58:29.038Z,100897.54
2017-11-20T21:00:57.442Z,100898.82
2017-11-20T21:03:25.907Z,100892.50
2017-11-20T21:05:54.517Z,100895.23
2017-11-20T21:08:22.921Z,100894.23
2017-11-20T21:10:56.914Z,100893.18
2017-11-20T21:13:26.117Z,100890.63
2017-11-20T21:15:54.512Z,100887.98
2017-11-20T21:18:23.588Z,100877.58
2017-11-20T21:20:52.878Z,100867.22
2017-11-20T21:23:21.296Z,100865.72
2017-11-20T21:25:49.733Z,100862.76
2017-11-20T21:28:18.189Z,100865.36
2017-11-20T21:30:46.587Z,100861.97
2017-11-20T21:33:15.792Z,100862.64
2017-11-20T21:35:44.218Z,100869.34
2017-11-20T21:38:13.361Z,100873.41
2017-11-20T21:40:42.510Z,100876.67
2017-11-20T21:43:10.899Z,100869.73
2017-11-20T21:45:39.292Z,100880.23
2017-11-20T21:48:07.720Z,100884.34
2017-11-20T21:50:36.114Z,100892.70
2017-11-20T21:53:04.515Z,100886.59
2017-11-20T21:55:32.933Z,100896.65
2017-11-20T21:58:01.308Z,100897.94
2017-11-20T22:00:30.535Z,100889.72
2017-11-20T22:02:59.135Z,100891.95
2017-11-20T22:05:27.518Z,100886.50
2017-11-20T22:07:56.325Z,100884.95
2017-11-20T22:10:25.532Z,100886.96
2017-11-20T22:16:06.591Z,100883.21
2017-11-20T22:18:34.999Z,100887.52
2017-11-20T22:21:03.452Z,100892.85
2017-11-20T22:23:32.300Z,100886.34
2017-11-20T22:26:00.693Z,100879.10
2017-11-20T22:28:29.881Z,100884.47
2017-11-20T22:30:58.353Z,100871.79
2017-11-20T22:33:26.746Z,100861.72
2017-11-20T22:35:55.368Z,100854.47
2017-11-20T22:38:23.785Z,100856.33
2017-11-20T22:40:52.944Z,100855.96
2017-11-20T22:43:21.341Z,100850.94
2017-11-20T22:45:51.146Z,100851.58
2017-11-20T22:48:19.661Z,100837.84
2017-11-20T22:50:48.450Z,100841.02
2017-11-20T22:53:17.651Z,100839.64
2017-11-20T22:55:46.072Z,100840.84
2017-11-20T22:58:14.494Z,100832.34
2017-11-20T23:00:43.697Z,100827.42
2017-11-20T23:03:13.678Z,100833.88
2017-11-20T23:05:42.122Z,100826.03
2017-11-20T23:08:10.650Z,100822.64
2017-11-20T23:10:39.076Z,100832.11
2017-11-20T23:13:07.756Z,100826.19
2017-11-20T23:15:36.213Z,100808.86
2017-11-20T23:18:05.757Z,100795.83
2017-11-20T23:20:34.153Z,100795.84
2017-11-20T23:23:02.578Z,100785.64
2017-11-20T23:25:31.740Z,100778.86
2017-11-20T23:28:00.117Z,100779.95
2017-11-20T23:30:28.637Z,100770.97
2017-11-20T23:32:57.035Z,100786.52
2017-11-20T23:35:25.442Z,100783.25
2017-11-20T23:37:53.881Z,100780.77
2017-11-20T23:40:22.275Z,100776.64
2017-11-20T23:42:50.660Z,100783.41
2017-11-20T23:45:19.862Z,100781.22
2017-11-20T23:47:48.236Z,100785.61
2017-11-20T23:50:16.664Z,100794.52
2017-11-20T23:52:45.152Z,100798.22
2017-11-20T23:55:13.727Z,100790.16
2017-11-20T23:57:43.041Z,100791.28
